createdAt,value
2018-08-20T00:00:00.464Z,95.10
2018-08-20T00:02:37.441Z,95.00
2018-08-20T00:05:10.182Z,95.10
2018-08-20T00:07:43.136Z,97.30
2018-08-20T00:10:16.018Z,96.80
2018-08-20T00:12:48.698Z,96.40
2018-08-20T00:15:21.461Z,98.00
2018-08-20T00:17:54.050Z,95.80
2018-08-20T00:20:27.146Z,96.20
2018-08-20T00:22:59.665Z,95.80
2018-08-20T00:25:32.467Z,95.80
2018-08-20T00:28:05.279Z,96.10
2018-08-20T00:30:38.183Z,97.10
2018-08-20T00:33:10.913Z,94.30
2018-08-20T00:35:44.510Z,94.00
2018-08-20T00:38:16.967Z,94.20
2018-08-20T00:40:49.383Z,94.20
2018-08-20T00:43:21.805Z,94.10
2018-08-20T00:45:54.202Z,94.20
2018-08-20T00:48:26.615Z,93.60
2018-08-20T00:50:59.161Z,93.60
2018-08-20T00:53:31.951Z,93.50
2018-08-20T00:56:04.375Z,93.50
2018-08-20T00:58:37.847Z,93.50
2018-08-20T01:01:10.355Z,93.50
2018-08-20T01:03:42.839Z,93.40
2018-08-20T01:06:15.299Z,93.40
2018-08-20T01:08:47.760Z,93.30
2018-08-20T01:11:20.162Z,93.30
2018-08-20T01:13:52.566Z,93.40
2018-08-20T01:16:25.222Z,95.50
2018-08-20T01:18:58.365Z,93.50
2018-08-20T01:21:30.753Z,99.90
2018-08-20T01:24:03.203Z,97.20
2018-08-20T01:26:36.144Z,93.70
2018-08-20T01:29:08.658Z,93.80
2018-08-20T01:31:41.393Z,93.80
2018-08-20T01:34:13.803Z,93.70
2018-08-20T01:36:46.220Z,93.80
2018-08-20T01:39:19.544Z,93.70
2018-08-20T01:41:52.594Z,93.80
2018-08-20T01:44:25.048Z,93.80
2018-08-20T01:46:57.971Z,93.80
2018-08-20T01:49:30.361Z,93.80
2018-08-20T01:52:03.487Z,93.80
2018-08-20T01:54:36.709Z,93.80
2018-08-20T01:57:09.138Z,94.00
2018-08-20T01:59:41.647Z,93.90
2018-08-20T02:02:14.533Z,93.90
2018-08-20T02:04:46.955Z,94.10
2018-08-20T02:07:19.626Z,95.20
2018-08-20T02:09:52.057Z,94.20
2018-08-20T02:12:24.476Z,94.20
2018-08-20T02:14:56.937Z,94.20
2018-08-20T02:17:29.366Z,99.70
2018-08-20T02:20:01.997Z,99.40
2018-08-20T02:22:35.135Z,98.20
2018-08-20T02:25:07.677Z,98.30
2018-08-20T02:27:40.130Z,96.00
2018-08-20T02:30:12.810Z,94.60
2018-08-20T02:32:45.306Z,94.60
2018-08-20T02:35:17.731Z,94.50
2018-08-20T02:37:50.503Z,94.60
2018-08-20T02:40:23.087Z,94.60
2018-08-20T02:42:55.520Z,94.70
2018-08-20T02:45:27.951Z,95.00
2018-08-20T02:48:00.448Z,99.90
2018-08-20T02:50:32.819Z,99.90
2018-08-20T02:55:37.858Z,95.00
2018-08-20T02:58:10.360Z,95.40
2018-08-20T03:00:43.388Z,95.40
2018-08-20T03:03:15.929Z,95.50
2018-08-20T03:05:48.453Z,95.50
2018-08-20T03:08:20.894Z,95.50
2018-08-20T03:10:53.373Z,95.70
2018-08-20T03:13:25.893Z,95.90
2018-08-20T03:15:58.368Z,95.90
2018-08-20T03:18:31.011Z,95.80
2018-08-20T03:21:03.549Z,95.90
2018-08-20T03:23:36.232Z,96.10
2018-08-20T03:26:09.057Z,96.40
2018-08-20T03:28:41.517Z,96.40
2018-08-20T03:31:14.025Z,96.60
2018-08-20T03:33:46.447Z,96.60
2018-08-20T03:36:18.926Z,96.70
2018-08-20T03:38:51.334Z,96.70
2018-08-20T03:41:23.902Z,96.70
2018-08-20T03:43:56.359Z,96.80
2018-08-20T03:46:28.775Z,96.80
2018-08-20T03:49:01.660Z,96.90
2018-08-20T03:51:34.076Z,96.90
2018-08-20T03:54:07.217Z,96.90
2018-08-20T03:56:39.894Z,97.10
2018-08-20T03:59:28.592Z,97.10
2018-08-20T04:02:03.323Z,97.10
2018-08-20T04:04:35.733Z,97.00
2018-08-20T04:07:08.137Z,96.90
2018-08-20T04:09:40.793Z,96.90
2018-08-20T04:12:13.606Z,97.10
2018-08-20T04:14:46.149Z,97.10
2018-08-20T04:17:18.574Z,97.10
2018-08-20T04:19:51.087Z,96.90
2018-08-20T04:22:23.585Z,97.00
2018-08-20T04:24:56.051Z,96.80
2018-08-20T04:27:28.489Z,96.90
2018-08-20T04:30:00.887Z,96.80
2018-08-20T04:32:33.434Z,96.90
2018-08-20T04:35:06.176Z,97.00
2018-08-20T04:37:38.591Z,96.80
2018-08-20T04:40:11.092Z,97.00
2018-08-20T04:42:43.622Z,97.10
2018-08-20T04:45:16.329Z,96.90
2018-08-20T04:47:48.772Z,96.90
2018-08-20T04:50:21.404Z,96.80
2018-08-20T04:52:53.670Z,96.80
2018-08-20T04:55:26.371Z,98.70
2018-08-20T04:57:58.836Z,99.90
2018-08-20T05:00:31.327Z,99.90
2018-08-20T05:03:04.215Z,99.90
2018-08-20T05:05:37.278Z,99.90
2018-08-20T05:08:09.746Z,99.90
2018-08-20T05:10:42.142Z,99.90
2018-08-20T05:13:14.630Z,96.40
2018-08-20T05:15:47.111Z,96.60
2018-08-20T05:18:19.861Z,96.70
2018-08-20T05:20:52.300Z,96.60
2018-08-20T05:23:25.618Z,96.60
2018-08-20T05:25:58.027Z,96.50
2018-08-20T05:28:30.492Z,96.40
2018-08-20T05:31:02.957Z,96.30
2018-08-20T05:33:35.618Z,96.10
2018-08-20T05:36:08.107Z,96.00
2018-08-20T05:38:40.630Z,96.10
2018-08-20T05:41:13.186Z,95.90
2018-08-20T05:46:18.311Z,95.50
2018-08-20T05:48:50.788Z,95.60
2018-08-20T05:53:55.650Z,99.90
2018-08-20T05:56:28.172Z,98.50
2018-08-20T05:59:00.614Z,96.30
2018-08-20T06:01:34.035Z,95.80
2018-08-20T06:04:07.828Z,95.90
2018-08-20T06:06:40.652Z,95.80
2018-08-20T06:09:13.129Z,96.10
2018-08-20T06:11:45.550Z,96.10
2018-08-20T06:14:18.024Z,96.20
2018-08-20T06:16:50.774Z,96.20
2018-08-20T06:19:23.227Z,96.30
2018-08-20T06:21:55.758Z,96.30
2018-08-20T06:24:28.255Z,96.10
2018-08-20T06:27:00.936Z,95.80
2018-08-20T06:29:33.355Z,95.80
2018-08-20T06:32:05.964Z,95.70
2018-08-20T06:34:38.529Z,95.50
2018-08-20T06:37:10.939Z,95.70
2018-08-20T06:39:43.453Z,95.60
2018-08-20T06:44:50.679Z,94.90
2018-08-20T06:47:23.101Z,95.10
2018-08-20T06:49:55.671Z,95.10
2018-08-20T06:52:28.196Z,94.90
2018-08-20T06:55:00.819Z,95.00
2018-08-20T06:57:33.226Z,95.20
2018-08-20T07:00:07.536Z,95.00
2018-08-20T07:02:39.960Z,95.00
2018-08-20T07:05:12.531Z,95.30
2018-08-20T07:07:45.052Z,95.70
2018-08-20T07:10:17.526Z,95.70
2018-08-20T07:12:50.027Z,95.90
2018-08-20T07:15:22.526Z,95.90
2018-08-20T07:17:54.960Z,96.00
2018-08-20T07:20:27.552Z,96.20
2018-08-20T07:23:00.121Z,96.30
2018-08-20T07:25:32.761Z,96.20
2018-08-20T07:28:05.305Z,96.30
2018-08-20T07:30:41.805Z,96.20
2018-08-20T07:33:14.377Z,96.30
2018-08-20T07:35:46.923Z,96.20
2018-08-20T07:38:19.381Z,96.70
2018-08-20T07:40:51.835Z,96.30
2018-08-20T07:43:24.392Z,96.20
2018-08-20T07:45:57.036Z,96.40
2018-08-20T07:48:29.586Z,96.00
2018-08-20T07:51:02.729Z,96.10
2018-08-20T07:53:35.639Z,96.30
2018-08-20T07:56:08.161Z,96.40
2018-08-20T07:58:40.619Z,96.40
2018-08-20T08:01:13.335Z,96.30
2018-08-20T08:03:45.830Z,96.30
2018-08-20T08:06:18.306Z,96.40
2018-08-20T08:08:50.922Z,96.20
2018-08-20T08:11:23.343Z,96.10
2018-08-20T08:16:28.407Z,95.70
2018-08-20T08:19:01.176Z,95.80
2018-08-20T08:21:34.146Z,95.80
2018-08-20T08:24:06.664Z,95.70
2018-08-20T08:26:39.333Z,95.50
2018-08-20T08:29:11.849Z,95.90
2018-08-20T08:31:45.075Z,95.90
2018-08-20T08:34:17.595Z,96.00
2018-08-20T08:36:50.070Z,96.10
2018-08-20T08:39:22.638Z,96.00
2018-08-20T08:41:55.147Z,96.00
2018-08-20T08:44:28.107Z,96.00
2018-08-20T08:47:00.872Z,96.00
2018-08-20T08:49:33.387Z,95.90
2018-08-20T08:52:06.298Z,95.60
2018-08-20T08:54:38.936Z,95.80
2018-08-20T08:57:11.367Z,95.90
2018-08-20T08:59:43.942Z,95.70
2018-08-20T09:02:16.381Z,95.60
2018-08-20T09:04:48.991Z,95.60
2018-08-20T09:07:21.585Z,95.70
2018-08-20T09:09:54.135Z,95.40
2018-08-20T09:12:26.647Z,95.50
2018-08-20T09:14:59.155Z,95.70
2018-08-20T09:17:31.696Z,95.50
2018-08-20T09:20:06.114Z,95.70
2018-08-20T09:22:38.917Z,95.60
2018-08-20T09:25:12.244Z,95.50
2018-08-20T09:27:45.864Z,95.40
2018-08-20T09:30:21.920Z,95.50
2018-08-20T09:32:54.424Z,95.40
2018-08-20T09:35:26.978Z,95.40
2018-08-20T09:37:59.459Z,95.20
2018-08-20T09:40:32.065Z,95.20
2018-08-20T09:43:04.572Z,95.10
2018-08-20T09:45:37.090Z,95.00
2018-08-20T09:48:09.598Z,95.10
2018-08-20T09:50:42.119Z,95.10
2018-08-20T09:53:14.920Z,95.10
2018-08-20T09:55:47.547Z,95.10
2018-08-20T09:58:20.039Z,95.20
2018-08-20T10:00:52.657Z,95.10
2018-08-20T10:03:25.110Z,95.30
2018-08-20T10:05:57.779Z,95.40
2018-08-20T10:08:30.798Z,95.30
2018-08-20T10:11:03.293Z,95.40
2018-08-20T10:13:35.797Z,95.40
2018-08-20T10:16:08.562Z,95.40
2018-08-20T10:18:41.230Z,95.40
2018-08-20T10:21:13.830Z,95.30
2018-08-20T10:23:46.479Z,95.20
2018-08-20T10:26:18.878Z,95.20
2018-08-20T10:28:53.451Z,95.10
2018-08-20T10:31:25.893Z,95.20
2018-08-20T10:33:58.441Z,95.10
2018-08-20T10:36:30.862Z,95.10
2018-08-20T10:39:04.195Z,95.20
2018-08-20T10:41:36.742Z,94.90
2018-08-20T10:44:09.489Z,94.50
2018-08-20T10:46:42.504Z,94.70
2018-08-20T10:49:15.580Z,94.70
2018-08-20T10:51:48.635Z,94.60
2018-08-20T10:54:21.210Z,94.30
2018-08-20T10:56:53.791Z,93.70
2018-08-20T10:59:26.288Z,93.40
2018-08-20T11:01:59.177Z,93.80
2018-08-20T11:04:31.612Z,93.90
2018-08-20T11:07:04.212Z,93.80
2018-08-20T11:09:36.763Z,93.50
2018-08-20T11:12:09.285Z,93.70
2018-08-20T11:14:41.765Z,93.70
2018-08-20T11:17:14.383Z,93.90
2018-08-20T11:19:46.933Z,93.90
2018-08-20T11:22:19.363Z,94.00
2018-08-20T11:24:51.857Z,93.90
2018-08-20T11:27:24.345Z,94.00
2018-08-20T11:29:57.093Z,94.10
2018-08-20T11:32:29.659Z,94.10
2018-08-20T11:35:02.152Z,94.30
2018-08-20T11:37:34.699Z,94.40
2018-08-20T11:40:07.740Z,94.20
2018-08-20T11:42:40.359Z,94.30
2018-08-20T11:45:13.969Z,94.60
2018-08-20T11:47:46.531Z,95.00
2018-08-20T11:50:19.081Z,95.20
2018-08-20T11:52:51.826Z,95.60
2018-08-20T11:57:57.569Z,95.50
2018-08-20T12:00:30.421Z,95.80
2018-08-20T12:03:02.994Z,95.80
2018-08-20T12:05:35.732Z,95.80
2018-08-20T12:08:08.217Z,95.70
2018-08-20T12:10:40.831Z,95.60
2018-08-20T12:13:13.390Z,95.50
2018-08-20T12:15:46.152Z,95.40
2018-08-20T12:18:18.636Z,95.50
2018-08-20T12:20:51.133Z,95.60
2018-08-20T12:23:24.812Z,96.00
2018-08-20T12:25:57.225Z,96.00
2018-08-20T12:28:30.342Z,96.00
2018-08-20T12:31:03.373Z,95.80
2018-08-20T12:33:36.122Z,95.90
2018-08-20T12:36:08.787Z,95.50
2018-08-20T12:38:41.314Z,95.50
2018-08-20T12:41:13.818Z,95.70
2018-08-20T12:43:46.521Z,95.70
2018-08-20T12:46:19.714Z,95.70
2018-08-20T12:48:52.307Z,95.50
2018-08-20T12:51:24.927Z,95.20
2018-08-20T12:53:58.622Z,95.60
2018-08-20T12:56:31.170Z,95.50
2018-08-20T12:59:03.668Z,95.20
2018-08-20T13:01:36.358Z,95.20
2018-08-20T13:04:08.968Z,95.10
2018-08-20T13:06:41.945Z,95.00
2018-08-20T13:09:14.430Z,95.00
2018-08-20T13:11:48.825Z,95.00
2018-08-20T13:14:21.523Z,95.00
2018-08-20T13:16:54.056Z,95.20
2018-08-20T13:19:26.649Z,95.30
2018-08-20T13:21:59.221Z,95.70
2018-08-20T13:24:31.950Z,95.70
2018-08-20T13:27:04.854Z,95.90
2018-08-20T13:29:37.410Z,95.90
2018-08-20T13:32:10.266Z,96.10
2018-08-20T13:34:43.139Z,95.80
2018-08-20T13:37:15.783Z,95.80
2018-08-20T13:39:49.644Z,95.60
2018-08-20T13:42:22.262Z,95.90
2018-08-20T13:44:55.059Z,95.80
2018-08-20T13:47:27.687Z,96.00
2018-08-20T13:50:16.089Z,96.10
2018-08-20T13:52:48.931Z,95.80
2018-08-20T13:55:21.504Z,95.50
2018-08-20T13:57:54.632Z,95.40
2018-08-20T14:00:27.303Z,95.80
2018-08-20T14:02:59.987Z,95.80
2018-08-20T14:05:41.260Z,95.90
2018-08-20T14:08:14.900Z,95.60
2018-08-20T14:10:47.755Z,95.40
2018-08-20T14:13:20.503Z,95.50
2018-08-20T14:15:53.473Z,95.60
2018-08-20T14:18:26.463Z,95.60
2018-08-20T14:21:05.772Z,95.70
2018-08-20T14:23:39.036Z,95.70
2018-08-20T14:26:11.685Z,95.60
2018-08-20T14:28:44.452Z,95.70
2018-08-20T14:31:17.203Z,96.00
2018-08-20T14:33:49.706Z,96.10
2018-08-20T14:36:22.182Z,96.10
2018-08-20T14:38:54.743Z,96.10
2018-08-20T14:41:27.248Z,96.30
2018-08-20T14:43:59.928Z,96.40
2018-08-20T14:46:32.470Z,96.40
2018-08-20T14:49:05.093Z,96.20
2018-08-20T14:51:37.925Z,96.50
2018-08-20T14:54:10.642Z,96.70
2018-08-20T14:56:43.205Z,96.90
2018-08-20T14:59:15.786Z,97.10
2018-08-20T15:01:48.373Z,97.10
2018-08-20T15:04:21.189Z,97.10
2018-08-20T15:07:02.507Z,97.30
2018-08-20T15:09:35.196Z,97.50
2018-08-20T15:12:07.685Z,97.50
2018-08-20T15:14:40.932Z,97.80
2018-08-20T15:17:13.568Z,97.80
2018-08-20T15:19:46.151Z,98.10
2018-08-20T15:22:19.508Z,98.20
2018-08-20T15:24:51.930Z,98.40
2018-08-20T15:27:24.387Z,98.40
2018-08-20T15:29:56.848Z,98.50
2018-08-20T15:32:29.527Z,98.40
2018-08-20T15:35:02.257Z,98.30
2018-08-20T15:37:34.753Z,98.40
2018-08-20T15:40:07.231Z,98.30
2018-08-20T15:42:39.761Z,98.30
2018-08-20T15:45:12.348Z,98.30
2018-08-20T15:47:55.610Z,98.30
2018-08-20T15:50:28.342Z,98.30
2018-08-20T15:53:00.901Z,98.20
2018-08-20T15:55:33.896Z,98.00
2018-08-20T15:58:06.663Z,98.20
2018-08-20T16:00:39.188Z,98.10
2018-08-20T16:03:17.958Z,98.10
2018-08-20T16:05:51.588Z,98.00
2018-08-20T16:08:24.587Z,98.00
2018-08-20T16:10:57.195Z,97.80
2018-08-20T16:13:29.649Z,97.80
2018-08-20T16:16:02.212Z,97.80
2018-08-20T16:18:34.928Z,97.80
2018-08-20T16:21:07.856Z,97.80
2018-08-20T16:23:40.364Z,97.90
2018-08-20T16:26:12.859Z,97.90
2018-08-20T16:28:45.259Z,98.00
2018-08-20T16:31:17.865Z,98.00
2018-08-20T16:33:50.621Z,98.00
2018-08-20T16:36:23.092Z,98.00
2018-08-20T16:38:55.859Z,98.00
2018-08-20T16:41:28.278Z,97.90
2018-08-20T16:44:00.713Z,97.90
2018-08-20T16:46:33.118Z,97.90
2018-08-20T16:49:06.890Z,97.90
2018-08-20T16:51:39.434Z,98.20
2018-08-20T16:54:11.983Z,98.00
2018-08-20T16:56:44.534Z,98.00
2018-08-20T16:59:16.994Z,98.40
2018-08-20T17:01:49.383Z,98.10
2018-08-20T17:04:31.190Z,98.00
2018-08-20T17:07:03.631Z,98.00
2018-08-20T17:09:36.103Z,98.10
2018-08-20T17:12:08.625Z,98.10
2018-08-20T17:14:41.046Z,98.30
2018-08-20T17:17:13.571Z,98.50
2018-08-20T17:19:46.426Z,98.60
2018-08-20T17:22:18.889Z,98.90
2018-08-20T17:24:53.798Z,98.80
2018-08-20T17:27:26.245Z,98.80
2018-08-20T17:29:58.702Z,98.80
2018-08-20T17:32:31.574Z,98.90
2018-08-20T17:35:06.694Z,99.20
2018-08-20T17:37:39.198Z,99.10
2018-08-20T17:40:11.671Z,99.10
2018-08-20T17:42:44.111Z,99.20
2018-08-20T17:47:49.073Z,99.10
2018-08-20T17:50:37.880Z,99.40
2018-08-20T17:53:10.692Z,99.40
2018-08-20T17:55:43.110Z,99.30
2018-08-20T17:58:15.659Z,99.40
2018-08-20T18:00:52.051Z,99.40
2018-08-20T18:03:29.496Z,99.50
2018-08-20T18:06:05.898Z,99.40
2018-08-20T18:08:38.313Z,99.50
2018-08-20T18:11:10.710Z,99.50
2018-08-20T18:13:45.530Z,99.60
2018-08-20T18:16:19.313Z,99.60
2018-08-20T18:18:52.812Z,99.60
2018-08-20T18:21:25.822Z,99.60
2018-08-20T18:23:58.657Z,99.70
2018-08-20T18:26:41.978Z,99.70
2018-08-20T18:29:14.537Z,99.70
2018-08-20T18:31:53.207Z,99.70
2018-08-20T18:34:25.847Z,99.60
2018-08-20T18:39:33.421Z,99.40
2018-08-20T18:42:14.636Z,99.70
2018-08-20T18:44:48.067Z,99.70
2018-08-20T18:47:20.524Z,99.80
2018-08-20T18:49:57.338Z,99.80
2018-08-20T18:52:30.732Z,99.70
2018-08-20T18:55:03.219Z,99.70
2018-08-20T18:57:37.095Z,99.80
2018-08-20T19:00:13.113Z,99.80
2018-08-20T19:02:50.864Z,99.90
2018-08-20T19:05:23.735Z,99.90
2018-08-20T19:07:56.118Z,99.90
2018-08-20T19:10:30.014Z,99.80
2018-08-20T19:13:02.444Z,99.80
2018-08-20T19:15:40.829Z,99.90
2018-08-20T19:18:17.933Z,99.80
2018-08-20T19:20:51.750Z,99.90
2018-08-20T19:23:24.238Z,99.90
2018-08-20T19:25:56.954Z,99.90
2018-08-20T19:28:31.070Z,99.90
2018-08-20T19:31:03.496Z,99.90
2018-08-20T19:33:35.879Z,99.90
2018-08-20T19:36:08.659Z,99.90
2018-08-20T19:38:41.314Z,99.90
2018-08-20T19:41:18.227Z,99.90
2018-08-20T19:43:52.160Z,99.90
2018-08-20T19:46:31.199Z,99.90
2018-08-20T19:49:08.711Z,99.90
2018-08-20T19:51:43.310Z,99.90
2018-08-20T19:54:16.850Z,99.90
2018-08-20T19:56:50.455Z,99.90
2018-08-20T19:59:29.077Z,99.90
2018-08-20T20:02:01.999Z,99.90
2018-08-20T20:04:35.369Z,99.90
2018-08-20T20:07:08.636Z,99.90
2018-08-20T20:09:41.588Z,99.90
2018-08-20T20:12:15.335Z,99.90
2018-08-20T20:14:49.005Z,99.90
2018-08-20T20:17:22.124Z,99.90
2018-08-20T20:19:55.767Z,99.90
2018-08-20T20:22:29.153Z,99.90
2018-08-20T20:25:03.345Z,99.90
2018-08-20T20:27:37.051Z,99.90
2018-08-20T20:30:09.758Z,99.90
2018-08-20T20:32:43.516Z,99.90
2018-08-20T20:35:16.586Z,99.90
2018-08-20T20:37:49.931Z,99.90
2018-08-20T20:40:22.702Z,99.90
2018-08-20T20:42:59.325Z,99.90
2018-08-20T20:45:35.338Z,99.90
2018-08-20T20:48:09.007Z,99.90
2018-08-20T20:50:42.514Z,99.90
2018-08-20T20:53:16.164Z,99.90
2018-08-20T20:55:49.123Z,99.90
2018-08-20T20:58:30.931Z,99.90
2018-08-20T21:01:12.731Z,99.90
2018-08-20T21:03:45.600Z,99.90
2018-08-20T21:06:18.101Z,99.90
2018-08-20T21:08:51.628Z,99.90
2018-08-20T21:11:24.435Z,99.90
2018-08-20T21:13:59.428Z,99.90
2018-08-20T21:16:32.298Z,99.90
2018-08-20T21:19:05.387Z,99.90
2018-08-20T21:21:38.288Z,99.90
2018-08-20T21:24:11.114Z,99.80
2018-08-20T21:26:43.868Z,99.90
2018-08-20T21:29:16.627Z,99.90
2018-08-20T21:31:51.711Z,99.90
2018-08-20T21:34:27.233Z,99.80
2018-08-20T21:37:00.445Z,99.80
2018-08-20T21:39:34.324Z,99.90
2018-08-20T21:42:07.329Z,99.90
2018-08-20T21:44:40.306Z,99.90
2018-08-20T21:47:29.065Z,99.90
2018-08-20T21:50:01.950Z,99.90
2018-08-20T21:52:34.668Z,99.90
2018-08-20T21:55:07.779Z,99.90
2018-08-20T21:57:45.140Z,99.90
2018-08-20T22:00:19.371Z,99.90
2018-08-20T22:02:55.943Z,99.90
2018-08-20T22:05:29.455Z,99.90
2018-08-20T22:08:02.046Z,99.90
2018-08-20T22:10:34.659Z,99.90
2018-08-20T22:13:07.924Z,99.90
2018-08-20T22:15:40.500Z,99.90
2018-08-20T22:18:13.084Z,99.90
2018-08-20T22:20:45.583Z,99.90
2018-08-20T22:23:25.274Z,99.60
2018-08-20T22:25:55.154Z,99.50
2018-08-20T22:28:27.942Z,99.20
2018-08-20T22:31:01.106Z,99.00
2018-08-20T22:33:33.842Z,99.00
2018-08-20T22:36:06.927Z,98.80
2018-08-20T22:38:55.520Z,98.70
2018-08-20T22:41:29.455Z,98.60
2018-08-20T22:44:01.977Z,99.00
2018-08-20T22:46:34.647Z,98.70
2018-08-20T22:49:07.328Z,98.60
2018-08-20T22:51:39.855Z,98.60
2018-08-20T22:54:14.499Z,98.40
2018-08-20T22:56:47.500Z,98.40
2018-08-20T22:59:20.155Z,98.40
2018-08-20T23:01:52.555Z,98.40
2018-08-20T23:04:25.055Z,98.50
2018-08-20T23:07:00.801Z,98.60
2018-08-20T23:09:33.277Z,98.50
2018-08-20T23:12:06.826Z,98.50
2018-08-20T23:14:39.395Z,98.60
2018-08-20T23:17:11.830Z,98.60
2018-08-20T23:19:44.293Z,98.60
2018-08-20T23:22:16.857Z,98.80
2018-08-20T23:24:55.027Z,98.50
2018-08-20T23:27:33.100Z,97.70
2018-08-20T23:30:06.564Z,97.50
2018-08-20T23:32:39.210Z,97.40
2018-08-20T23:35:11.638Z,97.30
2018-08-20T23:37:44.289Z,97.40
2018-08-20T23:40:17.735Z,97.50
2018-08-20T23:42:50.237Z,97.50
2018-08-20T23:45:23.066Z,97.50
2018-08-20T23:47:56.212Z,97.50
2018-08-20T23:50:28.819Z,97.50
2018-08-20T23:53:03.673Z,97.60
2018-08-20T23:55:36.532Z,97.80
2018-08-20T23:58:09.888Z,97.80
